Flight Track Log - Related Links

Times and Time Zones

All times are in EDT time to prevent confusion due to time zone crossing. See the VH-FJP flight status page for this flight to view local times or setup timezone preferences in your user account.

Time Position Orientation Groundspeed Altitude Reporting Facility
EDT Latitude Longitude Course Direction KTS MPH feet Rate Location/Type
Thu 05:05:21 AM -34.9500 117.8099 333° Northwest 30,000  Level Aus ATC (Calculated)
Thu 05:06:10 AM -34.8935 117.7736 333° Northwest 30,000 -543 Level Aus ATC (Calculated)
Thu 05:08:00 AM -34.7738 117.6970 332° Northwest  Level FlightAware Approximate
Thu 05:08:12 AM -34.7240 117.6652 333° Northwest 30,000  Level Aus ATC (Calculated)
Thu 05:10:00 AM -34.6063 117.5902 332° Northwest  Level FlightAware Approximate
Thu 05:11:00 AM -34.5409 117.5486 332° Northwest  Level FlightAware Approximate
Thu 05:11:33 AM -34.5543 117.5571 334° Northwest 30,000  Level Aus ATC (Calculated)
Thu 05:12:16 AM -34.4978 117.5212 335° Northwest 30,000 -1,594 Level Aus ATC (Calculated)
Thu 05:13:15 AM -34.4412 117.4854 337° Northwest 30,000 -2,054 Level Aus ATC (Calculated)
Thu 05:14:05 AM -34.3846 117.4495 105° East 30,000 -3,400 Level Aus ATC (Calculated)
Thu 05:14:45 AM -34.3863 117.4575 332° Northwest 267 307 24,900 -3,686 Descending Aus ATC (RADAR)
Thu 05:15:15 AM -34.3534 117.4361 332° Northwest 269 310 25,700 1,477 Climbing Aus ATC (RADAR)
Thu 05:15:50 AM -34.3133 117.4126 334° Northwest 274 315 26,500 1,765 Climbing Aus ATC (RADAR)
Thu 05:16:40 AM -34.2579 117.3781 333° Northwest 268 308 28,200 1,920 Climbing Aus ATC (RADAR)
Thu 05:17:05 AM -34.2321 117.3591 329° Northwest 261 300 28,900 2,123 Climbing Aus ATC (RADAR)
Thu 05:17:45 AM -34.1897 117.3324 332° Northwest 253 291 30,500 1,340 Climbing Aus ATC (RADAR)
Thu 05:18:39 AM -34.1300 117.2937 332° Northwest 270 311 31,000 353 Climbing Aus ATC (RADAR)
Thu 05:19:10 AM -34.0927 117.2717 334° Northwest 294 338 31,000  Level Aus ATC (RADAR)
Thu 05:20:00 AM -34.0281 117.2290 331° Northwest 316 364 31,000  Level Aus ATC (RADAR)
Thu 05:20:24 AM -33.9958 117.2086 332° Northwest 312 359 31,000  Level Aus ATC (RADAR)
Thu 05:20:59 AM -33.9505 117.1791 332° Northwest 311 358 31,000  Level Aus ATC (RADAR)
Thu 05:21:54 AM -33.8789 117.1341 332° Northwest 313 360 31,000  Level Aus ATC (RADAR)
Thu 05:22:19 AM -33.8462 117.1142 333° Northwest 314 361 31,000  Level Aus ATC (RADAR)
Thu 05:22:54 AM -33.8000 117.0879 335° Northwest 314 361 31,000  Level Aus ATC (RADAR)
Thu 05:23:44 AM -33.7357 117.0470 332° Northwest 310 357 31,000  Level Aus ATC (RADAR)
Thu 05:24:19 AM -33.6905 117.0188 333° Northwest 309 356 31,000  Level Aus ATC (RADAR)
Thu 05:25:04 AM -33.6325 116.9809 331° Northwest 312 359 31,000  Level Aus ATC (RADAR)
Thu 05:25:34 AM -33.5937 116.9559 332° Northwest 314 361 31,000  Level Aus ATC (RADAR)
Thu 05:26:09 AM -33.5476 116.9287 334° Northwest 315 362 31,000  Level Aus ATC (RADAR)
Thu 05:27:04 AM -33.4760 116.8834 332° Northwest 313 360 31,000  Level Aus ATC (RADAR)
Thu 05:27:29 AM -33.4430 116.8644 334° Northwest 310 357 31,000  Level Aus ATC (RADAR)
Thu 05:28:04 AM -33.3977 116.8355 332° Northwest 312 359 31,000  Level Aus ATC (RADAR)
Thu 05:28:54 AM -33.3324 116.7951 333° Northwest 313 360 31,000  Level Aus ATC (RADAR)
Thu 05:29:29 AM -33.2865 116.7669 333° Northwest 317 365 31,000 -76 Level Aus ATC (RADAR)
Thu 05:30:13 AM -33.2278 116.7309 333° Northwest 313 360 30,900 -783 Descending Aus ATC (RADAR)
Thu 05:30:38 AM -33.1945 116.7109 333° Northwest 313 360 30,100 -1,672 Descending Aus ATC (RADAR)
Thu 05:31:14 AM -33.1487 116.6829 333° Northwest 310 357 29,200 -1,600 Descending Aus ATC (RADAR)
Thu 05:32:08 AM -33.0791 116.6392 332° Northwest 302 348 27,700 -1,671 Descending Aus ATC (RADAR)
Thu 05:32:33 AM -33.0481 116.6208 334° Northwest 297 342 27,000 -1,600 Descending Aus ATC (RADAR)
Thu 05:33:08 AM -33.0056 116.5950 333° Northwest 291 335 26,100 -1,553 Descending Aus ATC (RADAR)
Thu 05:33:58 AM -32.9465 116.5580 332° Northwest 282 325 24,800 -1,553 Descending Aus ATC (RADAR)
Thu 05:34:33 AM -32.9052 116.5340 334° Northwest 279 321 23,900 -1,482 Descending Aus ATC (RADAR)
Thu 05:35:23 AM -32.8462 116.4978 333° Northwest 281 323 22,700 -1,520 Descending Aus ATC (RADAR)
Thu 05:35:48 AM -32.8166 116.4806 334° Northwest 281 323 22,000 -1,500 Descending Aus ATC (RADAR)
Thu 05:36:23 AM -32.7758 116.4547 332° Northwest 282 325 21,200 -1,453 Descending Aus ATC (RADAR)
Thu 05:37:23 AM -32.7063 116.4133 333° Northwest 272 313 19,700 -1,500 Descending Aus ATC (RADAR)
Thu 05:37:43 AM -32.6830 116.4000 334° Northwest 274 315 19,200 -1,527 Descending Aus ATC (RADAR)
Thu 05:38:18 AM -32.6423 116.3752 333° Northwest 277 319 18,300 -1,482 Descending Aus ATC (RADAR)
Thu 05:39:08 AM -32.5849 116.3412 333° Northwest 272 313 17,100 -1,412 Descending Aus ATC (RADAR)
Thu 05:39:43 AM -32.5458 116.3172 333° Northwest 267 307 16,300 -1,200 Descending Aus ATC (RADAR)
Thu 05:40:28 AM -32.4975 116.2880 333° Northwest 253 291 15,500 -1,114 Descending Aus ATC (RADAR)
Thu 05:40:53 AM -32.4711 116.2725 334° Northwest 250 288 15,000 -1,220 Descending Aus ATC (RADAR)
Thu 05:41:27 AM -32.4345 116.2500 333° Northwest 249 287 14,300 -1,385 Descending Aus ATC (RADAR)
Thu 05:42:37 AM -32.3686 116.1922 323° Northwest 247 284 12,600 -1,768 Descending Aus ATC (RADAR)
Thu 05:43:02 AM -32.3552 116.1606 297° West 245 282 11,500 -2,727 Descending Aus ATC (RADAR)
Thu 05:43:32 AM -32.3402 116.1234 296° West 237 273 10,100 -2,720 Descending Aus ATC (RADAR)
Thu 05:44:17 AM -32.3128 116.0750 304° West 229 264 8,100 -2,325 Descending Aus ATC (RADAR)
Thu 05:44:52 AM -32.2811 116.0511 327° Northwest 225 259 7,000 -825 Descending Aus ATC (RADAR)
Thu 05:45:37 AM -32.2393 116.0200 328° Northwest 236 272 7,000  Level Aus ATC (RADAR)
Thu 05:46:07 AM -32.2115 115.9997 328° Northwest 233 268 7,000  Level Aus ATC (RADAR)
Thu 05:46:32 AM -32.1893 115.9829 327° Northwest 226 260 7,000 -71 Level Aus ATC (RADAR)
Thu 05:47:32 AM -32.1364 115.9434 328° Northwest 220 253 6,900 -533 Descending Aus ATC (RADAR)
Thu 05:48:02 AM -32.1116 115.9257 329° Northwest 205 236 6,200 -831 Descending Aus ATC (RADAR)
Thu 05:48:37 AM -32.0866 115.9058 326° Northwest 182 209 6,000 -343 Descending Aus ATC (RADAR)

Login

Don't have an account? Register now (free) for customized features, flight alerts, and more!